Spencerport, NY (14559)

10:54 AM EST on December 19, 2014 (GMT -0500)
Spencerport NY | Change Station
CLOSE
Current Station
Personal Weather Station
Location: Spencerport, NY
Elevation: 574 ft
Nearby Weather Stations

Elev 574 ft 43.18 °N, 77.80 °W | Updated 6 minutes ago

Overcast
Overcast
25.8 °F
Feels Like 26 °F
N
0.0
Wind Variable Wind from WSW
Gusts 7.0 mph

Today
High -- | Low -- °F
--% Chance of Precip.
Yesterday
High -- | Low -- °F
Precip. -- in
7:38 AM 4:37 PM
Waning Crescent, 7% visible
Pressure 30.20 in
Visibility 10.0 miles
Clouds Overcast 1200 ft
Windchill 26 °F
Dew Point 22 °F
Humidity 87%
Rainfall 0.00 in
Snow Depth Not available.
UV 0 out of 12
Pollen .10 out of 12
Air Quality Not available.
Flu Activity Not available.
METAR KROC 191454Z 27009KT 10SM OVC012 M03/M06 A3017 RMK AO2 SLP227 60000 T10331061 52016

More Conditions Fewer Conditions

Pressure 30.20 in
Visibility 10.0 miles
Clouds Overcast 1200 ft
Windchill 26 °F
Dew Point 22 °F
Humidity 87%
Rainfall 0.00 in
Snow Depth Not available.
UV 0 out of 12
Pollen .10 out of 12
Air Quality Not available.
Flu Activity Not available.
METAR KROC 191454Z 27009KT 10SM OVC012 M03/M06 A3017 RMK AO2 SLP227 60000 T10331061 52016

More Conditions Fewer Conditions

10-Day Weather Forecast

Almanac

Astronomy

Dec. 19, 2014 Rise Set
Actual Time
Civil Twilight
Nautical Twilight
Astronomical Twilight
Moon
Length of Visible Light
Length of Day
Tomorrow will be .
, % of the Moon is Illuminated

Today's Extremes

State Highs State Lows

Community

WunderPhotos

Upload Photos

1,778,997 photos uploaded!

WunderBlogs® & News

Nearby

Air Quality

  Air Quality AQ Index Pollutant
Not available.

Snow Depth

Station Depth Elevation

Earthquake Activity

City Distance Mag. Time & Date
Minimum magnitude displayed is 2.5.

Coastal Water Temperatures

Place Temperature

Nearby Weather Stations